Página principal
METAR-TAF:

METAR-TAF

Aeroportos :

Aeroporto Internacional de Astana

Astana, Cazaquistão

latitude: 51-12N, longitude: 071-27E, altura: 355 m

Observação actual do tempo

O boletim foi feito há 11 minutos, às 17:00 UTC
Vento 6 kt de es-sudeste
Temperatura 5°C
Humidade 81%
Pressão 1022 hPa
Visibilidade 10 km ou mais
sem nuvens abaixo de 1500 metros e sem cumulonimbus

METAR: UACC 181700Z 11003MPS CAVOK 05/02 Q1022 R04/0///70 NOSIG RMK QFE735/0980

Hora: 23:11 (17:11 UTC)

Previsão

O boletim foi feito há 6 horas e 11 minutos, às 11:00 UTC
Previsão válida de 18 às 12 UTC a 19 às 12 UTC
Vento 12 kt de sudeste
Visibilidade 10 km ou mais
Nuvens dispersasa uma altura de 3000 ft
Nuvens fragmentadasa uma altura de 10000 ft
Temporariamente
de 19 às 00 UTC a 19 às 12 UTC
Vento 12 kt de su-sudeste com rajadas de 21 kt

TAF: UACC 181100Z 1812/1912 14006MPS 9999 SCT030 BKN100 TX20/1910Z TN05/1824Z TEMPO 1900/1912 15006G11MPS

Observações e previsões do tempo de mais de 4000 aeroportos (mensagens METAR e TAF).

As estações disponíveis são os pontos amarelos e vermelhos sobre o mapa.

Mova o rato sobre o mapa para ver o nome da estação.

Depois clique no ponto para visualizar as observações e previsões meteorológicas.

Para alterar o mapa : clique nos botões verdes com uma cruz preta para aumentar o zoom; no botão verde com uma pitada de zoom; ou nas setas verdes para mapas adjacentes.


METAR-TAF: